Time;durP1;ratioP1;P1;durP2;ratioP2;P2;SDS_P1;SDS_P2;PMS_P1;PMS_P2;Temp;Humidity;BMP_temperature;BMP_pressure;BME280_temperature;BME280_humidity;BME280_pressure;Samples;Min_cycle;Max_cycle;Signal;HPM_P1;HPM_P2
2022/03/11 00:00:42;;;;;;;5.63;3.42;;;-2.60;99.90;;;;;;4999890;28;20082;-64
2022/03/11 00:03:11;;;;;;;7.53;3.70;;;-2.60;99.90;;;;;;4999984;28;21871;-66
2022/03/11 00:05:39;;;;;;;10.00;3.80;;;-2.60;99.90;;;;;;4992094;28;20405;-68
2022/03/11 00:08:06;;;;;;;7.90;3.92;;;-2.70;99.90;;;;;;4997340;28;20144;-64
2022/03/11 00:10:33;;;;;;;6.63;4.22;;;-2.70;99.90;;;;;;4993631;28;20457;-65
2022/03/11 00:13:00;;;;;;;7.28;4.35;;;-2.70;99.90;;;;;;4996000;28;20050;-67
2022/03/11 00:15:27;;;;;;;12.52;3.72;;;-2.70;99.90;;;;;;4997611;28;20104;-63
2022/03/11 00:17:54;;;;;;;5.90;3.72;;;-2.70;99.90;;;;;;5005412;28;20141;-64
2022/03/11 00:20:22;;;;;;;8.40;4.05;;;-2.70;99.90;;;;;;5001135;28;20618;-66
2022/03/11 00:22:50;;;;;;;9.70;4.88;;;-2.70;99.90;;;;;;5005851;28;20076;-66
2022/03/11 00:25:19;;;;;;;5.80;4.07;;;-2.70;99.90;;;;;;4994838;28;20113;-66
2022/03/11 00:27:46;;;;;;;6.28;3.53;;;-2.80;99.90;;;;;;4998546;28;20498;-67
2022/03/11 00:30:13;;;;;;;7.68;4.25;;;-2.80;99.90;;;;;;4996877;28;20096;-67
2022/03/11 00:32:41;;;;;;;7.07;3.80;;;-2.80;99.90;;;;;;4996162;28;20115;-66
2022/03/11 00:35:09;;;;;;;13.30;7.10;;;-2.80;99.90;;;;;;4992393;28;20124;-64
2022/03/11 00:37:37;;;;;;;9.52;5.43;;;-2.80;99.90;;;;;;5002808;28;20104;-68
2022/03/11 00:40:05;;;;;;;9.48;4.85;;;-2.90;99.90;;;;;;4995687;28;20141;-67
2022/03/11 00:42:32;;;;;;;11.23;4.55;;;-2.90;99.90;;;;;;4993046;28;20080;-64
2022/03/11 00:45:00;;;;;;;7.82;5.25;;;-2.80;99.90;;;;;;5002780;28;20566;-69
2022/03/11 00:47:27;;;;;;;11.68;5.50;;;-2.80;99.90;;;;;;5006131;28;20462;-65
2022/03/11 00:49:54;;;;;;;9.88;5.05;;;-2.90;99.90;;;;;;5005045;28;20058;-67
2022/03/11 00:52:21;;;;;;;9.00;4.82;;;-2.90;99.90;;;;;;5001524;28;20145;-64
2022/03/11 00:54:48;;;;;;;9.60;5.68;;;-2.90;99.90;;;;;;5002761;28;20516;-67
2022/03/11 00:57:16;;;;;;;10.68;5.22;;;-2.80;99.90;;;;;;4996163;28;20070;-64
2022/03/11 00:59:44;;;;;;;13.55;6.55;;;-2.80;99.90;;;;;;5002767;28;20073;-71
2022/03/11 01:02:10;;;;;;;11.52;6.60;;;-2.70;99.90;;;;;;5015562;28;20104;-68
2022/03/11 01:04:38;;;;;;;11.63;5.95;;;-2.60;99.90;;;;;;4995285;28;20042;-71
2022/03/11 01:07:05;;;;;;;8.70;6.07;;;-2.60;99.90;;;;;;4995699;28;20049;-65
2022/03/11 01:09:32;;;;;;;17.02;10.18;;;-2.50;99.90;;;;;;5004182;28;20073;-66
2022/03/11 01:11:59;;;;;;;11.70;7.68;;;-2.50;99.90;;;;;;4998903;28;20115;-63
2022/03/11 01:14:26;;;;;;;12.32;6.97;;;-2.40;99.90;;;;;;5003452;28;20113;-70
2022/03/11 01:16:53;;;;;;;18.15;9.35;;;-2.10;99.90;;;;;;5005512;28;20061;-69
2022/03/11 01:19:20;;;;;;;11.00;7.47;;;-1.90;99.90;;;;;;5011746;28;20049;-68
2022/03/11 01:21:47;;;;;;;12.02;8.05;;;-1.70;99.90;;;;;;5009848;28;20057;-64
2022/03/11 01:24:14;;;;;;;15.43;7.22;;;-1.60;99.90;;;;;;5004580;28;20057;-67
2022/03/11 01:26:41;;;;;;;12.68;6.93;;;-1.50;99.90;;;;;;5011384;28;20685;-66
2022/03/11 01:29:08;;;;;;;12.13;6.78;;;-1.50;99.90;;;;;;4997976;28;20092;-66
2022/03/11 01:31:36;;;;;;;12.75;6.65;;;-1.40;99.90;;;;;;5003552;28;20870;-70
2022/03/11 01:34:03;;;;;;;9.95;6.38;;;-1.20;99.90;;;;;;5006476;28;20648;-64
2022/03/11 01:36:30;;;;;;;11.23;7.30;;;-1.20;99.90;;;;;;5003052;28;20144;-63
2022/03/11 01:38:56;;;;;;;10.20;6.00;;;-1.10;99.90;;;;;;5001892;28;20108;-65
2022/03/11 01:41:23;;;;;;;12.15;6.85;;;-1.00;99.90;;;;;;4994656;28;20522;-65
2022/03/11 01:44:08;;;;;;;14.20;6.40;;;-0.90;99.90;;;;;;5004450;28;20464;-64
2022/03/11 01:46:36;;;;;;;11.57;7.35;;;-0.80;99.90;;;;;;5007705;28;20143;-64
2022/03/11 01:49:06;;;;;;;10.93;6.93;;;-0.70;99.90;;;;;;5001771;28;20050;-65
2022/03/11 01:51:41;;;;;;;8.32;5.30;;;-0.70;99.90;;;;;;5008345;28;20053;-66
2022/03/11 01:54:08;;;;;;;14.98;7.72;;;-0.70;99.90;;;;;;5002273;28;20045;-68
2022/03/11 01:56:37;;;;;;;13.38;6.72;;;-0.60;99.90;;;;;;5004362;28;20046;-64
2022/03/11 01:59:05;;;;;;;9.73;6.00;;;-0.70;99.90;;;;;;5001872;28;20440;-71
2022/03/11 02:01:32;;;;;;;9.90;7.03;;;-0.60;99.90;;;;;;5004512;28;20200;-63
2022/03/11 02:03:59;;;;;;;11.48;6.85;;;-0.60;99.90;;;;;;4997695;28;20060;-63
2022/03/11 02:06:28;;;;;;;11.73;6.13;;;-0.60;99.90;;;;;;4994107;28;20638;-70
2022/03/11 02:08:56;;;;;;;8.98;6.10;;;-0.50;99.90;;;;;;4990480;28;20124;-66
2022/03/11 02:11:23;;;;;;;12.60;7.28;;;-0.50;99.90;;;;;;5003811;28;20057;-67
2022/03/11 02:13:55;;;;;;;14.67;6.00;;;-0.40;99.90;;;;;;5003128;28;20069;-65
2022/03/11 02:16:28;;;;;;;18.52;7.00;;;-0.40;99.90;;;;;;5003920;28;20458;-62
2022/03/11 02:18:56;;;;;;;10.63;7.18;;;-0.30;99.90;;;;;;4989343;28;20062;-69
2022/03/11 02:21:26;;;;;;;12.10;7.50;;;-0.30;99.90;;;;;;5002700;28;20176;-64
2022/03/11 02:23:56;;;;;;;14.50;6.57;;;-0.30;99.90;;;;;;4996244;28;20054;-70
2022/03/11 02:26:25;;;;;;;12.45;6.22;;;-0.30;99.90;;;;;;5006646;28;20203;-70
2022/03/11 02:28:54;;;;;;;11.63;6.67;;;-0.30;99.90;;;;;;5002783;28;20054;-65
2022/03/11 02:31:22;;;;;;;12.10;6.60;;;-0.30;99.90;;;;;;5002935;28;20488;-67
2022/03/11 02:33:49;;;;;;;11.65;7.40;;;-0.30;99.90;;;;;;4995282;28;20620;-65
2022/03/11 02:36:18;;;;;;;13.23;7.35;;;-0.30;99.90;;;;;;5001573;28;20104;-64
2022/03/11 02:38:45;;;;;;;11.18;6.60;;;-0.20;99.90;;;;;;4994115;28;20135;-64
2022/03/11 02:41:12;;;;;;;11.32;6.75;;;-0.20;99.90;;;;;;4992810;28;20104;-67
2022/03/11 02:43:42;;;;;;;10.48;6.15;;;-0.30;99.90;;;;;;5002605;28;20153;-65
2022/03/11 02:46:14;;;;;;;10.32;6.68;;;-0.20;99.90;;;;;;5003368;28;20148;-64
2022/03/11 02:48:42;;;;;;;12.30;6.75;;;-0.20;99.90;;;;;;4972258;28;20054;-64
2022/03/11 02:51:09;;;;;;;15.13;9.55;;;-0.20;99.90;;;;;;5001419;28;20056;-66
2022/03/11 02:53:42;;;;;;;11.27;6.50;;;-0.20;99.90;;;;;;5001293;28;20427;-67
2022/03/11 02:56:11;;;;;;;15.95;6.25;;;-0.30;99.90;;;;;;5001135;28;20169;-65
2022/03/11 02:58:40;;;;;;;14.52;5.90;;;-0.30;99.90;;;;;;5011203;28;20057;-64
2022/03/11 03:01:08;;;;;;;12.00;6.85;;;-0.20;99.90;;;;;;4998953;28;20054;-66
2022/03/11 03:03:36;;;;;;;12.05;6.18;;;-0.30;99.90;;;;;;4987931;28;20854;-65
2022/03/11 03:06:04;;;;;;;13.60;8.25;;;-0.30;99.90;;;;;;5001531;28;20050;-64
2022/03/11 03:08:32;;;;;;;14.25;7.72;;;-0.30;99.90;;;;;;5001083;28;20042;-65
2022/03/11 03:10:59;;;;;;;18.08;6.95;;;-0.20;99.90;;;;;;4995763;28;20050;-66
2022/03/11 03:13:27;;;;;;;13.23;7.25;;;-0.20;99.90;;;;;;5000913;28;20183;-65
2022/03/11 03:15:54;;;;;;;14.20;6.60;;;-0.20;99.90;;;;;;5001158;28;20393;-66
2022/03/11 03:18:21;;;;;;;20.23;6.22;;;-0.10;99.90;;;;;;5000020;28;20064;-64
2022/03/11 03:20:48;;;;;;;11.43;6.43;;;-0.20;99.90;;;;;;4999715;28;20061;-68
2022/03/11 03:23:15;;;;;;;9.55;5.00;;;-0.20;99.90;;;;;;5001506;28;20053;-68
2022/03/11 03:25:42;;;;;;;10.07;5.68;;;-0.20;99.90;;;;;;5003368;28;20115;-65
2022/03/11 03:28:09;;;;;;;13.05;5.50;;;-0.20;99.90;;;;;;4999934;28;20057;-68
2022/03/11 03:30:36;;;;;;;13.77;6.25;;;-0.20;99.90;;;;;;4999877;28;20330;-66
2022/03/11 03:33:03;;;;;;;10.55;5.97;;;-0.10;99.90;;;;;;4993944;28;20042;-65
2022/03/11 03:35:30;;;;;;;11.43;6.28;;;-0.10;99.90;;;;;;4997723;28;20104;-63
2022/03/11 03:37:57;;;;;;;13.65;6.13;;;-0.10;99.90;;;;;;5001387;28;20050;-63
2022/03/11 03:40:24;;;;;;;9.30;6.22;;;-0.10;99.90;;;;;;4997451;28;20042;-67
2022/03/11 03:42:51;;;;;;;11.45;6.13;;;0.00;99.90;;;;;;5000935;28;20104;-68
2022/03/11 03:45:18;;;;;;;9.73;5.85;;;0.00;99.90;;;;;;4997685;28;20058;-68
2022/03/11 03:47:46;;;;;;;9.25;5.65;;;-0.10;99.90;;;;;;4999717;28;20060;-66
2022/03/11 03:50:13;;;;;;;11.25;6.43;;;-0.10;99.90;;;;;;5001419;28;20184;-64
2022/03/11 03:52:39;;;;;;;12.10;5.75;;;0.00;99.90;;;;;;4998673;28;20054;-66
2022/03/11 03:55:07;;;;;;;10.05;5.88;;;0.00;99.90;;;;;;5000822;28;20082;-67
2022/03/11 03:57:34;;;;;;;10.30;5.22;;;0.00;99.90;;;;;;4999456;28;20646;-67
2022/03/11 04:00:03;;;;;;;12.65;6.25;;;-0.10;99.90;;;;;;5016332;28;20169;-66
2022/03/11 04:02:47;;;;;;;10.73;5.70;;;-0.10;99.90;;;;;;5001868;28;20127;-70
2022/03/11 04:05:16;;;;;;;8.93;5.10;;;-0.20;99.90;;;;;;5002252;28;20056;-71
2022/03/11 04:07:44;;;;;;;10.40;5.45;;;-0.20;99.90;;;;;;5001502;28;20112;-65
2022/03/11 04:10:12;;;;;;;9.70;5.32;;;-0.20;99.90;;;;;;5005413;28;20136;-67
2022/03/11 04:12:40;;;;;;;12.52;6.82;;;-0.30;99.90;;;;;;4992935;28;20491;-68
2022/03/11 04:15:07;;;;;;;9.30;5.68;;;-0.30;99.90;;;;;;4996641;28;20119;-66
2022/03/11 04:17:34;;;;;;;13.60;6.32;;;-0.30;99.90;;;;;;5000150;28;20062;-67
2022/03/11 04:20:02;;;;;;;13.00;6.30;;;-0.30;99.90;;;;;;4996110;28;20257;-68
2022/03/11 04:22:29;;;;;;;11.65;5.47;;;-0.30;99.90;;;;;;5000336;28;20116;-64
2022/03/11 04:24:56;;;;;;;9.23;6.25;;;-0.30;99.90;;;;;;4998614;28;20050;-68
2022/03/11 04:27:23;;;;;;;12.50;6.88;;;-0.40;99.90;;;;;;5004335;28;20078;-66
2022/03/11 04:29:50;;;;;;;15.15;6.82;;;-0.40;99.90;;;;;;5001797;28;20108;-64
2022/03/11 04:32:18;;;;;;;14.68;6.55;;;-0.50;99.90;;;;;;5004099;28;20046;-63
2022/03/11 04:34:47;;;;;;;10.60;7.15;;;-0.50;99.90;;;;;;5000714;28;20141;-66
2022/03/11 04:37:14;;;;;;;14.10;6.45;;;-0.50;99.90;;;;;;5004009;28;20069;-67
2022/03/11 04:39:41;;;;;;;11.00;6.70;;;-0.50;99.90;;;;;;5004089;28;20081;-65
2022/03/11 04:42:09;;;;;;;13.55;7.72;;;-0.60;99.90;;;;;;5002609;28;20112;-64
2022/03/11 04:44:36;;;;;;;15.07;7.57;;;-0.50;99.90;;;;;;4997888;28;20054;-66
2022/03/11 04:47:04;;;;;;;14.68;6.47;;;-0.50;99.90;;;;;;5002996;28;20141;-67
2022/03/11 04:49:31;;;;;;;11.30;7.65;;;-0.50;99.90;;;;;;5004074;28;20848;-64
2022/03/11 04:51:58;;;;;;;9.82;6.20;;;-0.60;99.90;;;;;;5004288;28;20073;-64
2022/03/11 04:54:25;;;;;;;14.10;7.03;;;-0.60;99.90;;;;;;5004269;28;20081;-66
2022/03/11 04:56:52;;;;;;;13.65;8.98;;;-0.70;99.90;;;;;;5000520;28;20112;-64
2022/03/11 04:59:19;;;;;;;16.05;6.88;;;-0.70;99.90;;;;;;5005262;28;20108;-65
2022/03/11 05:01:46;;;;;;;12.82;7.80;;;-0.70;99.90;;;;;;5005812;28;20080;-65
2022/03/11 05:04:13;;;;;;;13.35;7.43;;;-0.70;99.90;;;;;;5004284;28;20053;-63
2022/03/11 05:06:40;;;;;;;14.90;7.57;;;-0.80;99.90;;;;;;5000928;28;20108;-67
2022/03/11 05:09:07;;;;;;;14.00;7.22;;;-0.70;99.90;;;;;;5006797;28;20061;-66
2022/03/11 05:11:34;;;;;;;11.80;6.90;;;-0.70;99.90;;;;;;5004616;28;20060;-65
2022/03/11 05:14:01;;;;;;;14.10;6.82;;;-0.60;99.90;;;;;;5001311;28;20053;-68
2022/03/11 05:16:28;;;;;;;13.25;7.80;;;-0.50;99.90;;;;;;4996716;28;20066;-67
2022/03/11 05:18:55;;;;;;;14.13;7.28;;;-0.50;99.90;;;;;;5002425;28;20054;-68
2022/03/11 05:21:22;;;;;;;13.38;8.13;;;-0.40;99.90;;;;;;5004480;28;20133;-66
2022/03/11 05:23:49;;;;;;;12.00;7.93;;;-0.40;99.90;;;;;;5003377;28;20583;-71
2022/03/11 05:26:25;;;;;;;13.48;7.20;;;-0.30;99.90;;;;;;5000334;28;20073;-64
2022/03/11 05:28:55;;;;;;;15.43;8.38;;;-0.30;99.90;;;;;;4999412;28;20404;-63
2022/03/11 05:31:22;;;;;;;16.43;8.60;;;-0.30;99.90;;;;;;5003913;28;20867;-68
2022/03/11 05:33:49;;;;;;;15.15;8.07;;;-0.30;99.90;;;;;;5003421;28;20279;-64
2022/03/11 05:36:17;;;;;;;19.35;8.60;;;-0.20;99.90;;;;;;5004824;28;20054;-65
2022/03/11 05:38:44;;;;;;;15.85;8.02;;;-0.20;99.90;;;;;;5001242;28;20054;-69
2022/03/11 05:41:12;;;;;;;14.20;8.45;;;-0.20;99.90;;;;;;5001715;28;20056;-69
2022/03/11 05:43:39;;;;;;;16.55;8.38;;;-0.10;99.90;;;;;;4999888;28;20151;-70
2022/03/11 05:46:06;;;;;;;14.85;7.65;;;-0.10;99.90;;;;;;4984895;28;20077;-70
2022/03/11 05:48:33;;;;;;;15.65;9.15;;;-0.20;99.90;;;;;;4991043;28;20065;-63
2022/03/11 05:51:06;;;;;;;16.92;7.97;;;-0.10;99.90;;;;;;5000138;28;20116;-63
2022/03/11 05:53:33;;;;;;;13.95;8.35;;;-0.10;99.90;;;;;;4994220;28;20054;-65
2022/03/11 05:56:00;;;;;;;17.42;7.65;;;-0.10;99.90;;;;;;4992050;28;20108;-64
2022/03/11 05:58:27;;;;;;;14.65;8.48;;;-0.10;99.90;;;;;;4997554;28;20084;-68
2022/03/11 06:00:54;;;;;;;15.73;8.98;;;0.00;99.90;;;;;;4991910;28;20160;-67
2022/03/11 06:03:21;;;;;;;12.98;7.78;;;-0.10;99.90;;;;;;4990026;28;20046;-64
2022/03/11 06:05:48;;;;;;;13.05;8.02;;;0.00;99.90;;;;;;4998531;28;20050;-64
2022/03/11 06:08:19;;;;;;;14.45;8.20;;;-0.10;99.90;;;;;;4988374;28;20062;-64
2022/03/11 06:10:47;;;;;;;17.10;10.55;;;0.00;99.90;;;;;;4986477;28;20120;-64
2022/03/11 06:13:14;;;;;;;15.23;8.63;;;0.00;99.90;;;;;;4992067;28;20163;-66
2022/03/11 06:15:42;;;;;;;16.02;8.40;;;0.10;99.90;;;;;;4989170;28;20074;-67
2022/03/11 06:18:10;;;;;;;16.65;7.88;;;0.10;99.90;;;;;;4995813;28;20049;-67
2022/03/11 06:20:37;;;;;;;16.02;7.85;;;0.10;99.90;;;;;;4993630;28;20184;-71
2022/03/11 06:23:03;;;;;;;16.92;8.50;;;0.20;99.90;;;;;;4998534;28;20091;-67
2022/03/11 06:25:30;;;;;;;15.32;7.97;;;0.20;99.90;;;;;;4994998;28;20168;-65
2022/03/11 06:27:57;;;;;;;14.80;8.30;;;0.20;99.90;;;;;;4995700;28;20069;-67
2022/03/11 06:30:29;;;;;;;15.70;8.57;;;0.20;99.90;;;;;;4998104;28;20060;-64
2022/03/11 06:32:56;;;;;;;14.57;8.25;;;0.30;99.90;;;;;;4991669;28;20153;-69
2022/03/11 06:35:23;;;;;;;16.63;9.60;;;0.30;99.90;;;;;;4989963;28;20550;-63
2022/03/11 06:37:50;;;;;;;13.43;9.07;;;0.40;99.90;;;;;;4993164;28;20072;-67
2022/03/11 06:40:18;;;;;;;12.50;8.48;;;0.50;99.90;;;;;;4997399;28;20772;-66
2022/03/11 06:42:47;;;;;;;18.35;9.02;;;0.50;99.90;;;;;;4986371;28;20210;-66
2022/03/11 06:45:16;;;;;;;22.10;9.90;;;0.50;99.90;;;;;;4989655;28;20050;-67
2022/03/11 06:47:45;;;;;;;15.23;8.82;;;0.60;99.90;;;;;;4990153;28;20312;-64
2022/03/11 06:50:12;;;;;;;21.65;8.95;;;0.70;99.90;;;;;;4988247;28;21486;-72
2022/03/11 06:52:40;;;;;;;18.45;11.02;;;0.80;99.90;;;;;;4993642;28;20120;-65
2022/03/11 06:55:07;;;;;;;16.50;9.63;;;0.90;99.90;;;;;;4989646;28;20068;-68
2022/03/11 06:57:34;;;;;;;19.48;10.23;;;1.00;99.90;;;;;;4990860;28;20160;-67
2022/03/11 07:00:03;;;;;;;27.08;9.98;;;1.10;99.90;;;;;;4990863;28;20078;-63
2022/03/11 07:02:30;;;;;;;20.10;9.55;;;1.20;99.90;;;;;;4990081;28;20192;-65
2022/03/11 07:04:57;;;;;;;20.58;8.90;;;1.30;99.90;;;;;;4996147;28;20042;-70
2022/03/11 07:07:25;;;;;;;28.73;9.27;;;1.40;99.90;;;;;;4988806;28;20346;-67
2022/03/11 07:09:52;;;;;;;17.48;10.55;;;1.50;99.90;;;;;;4989413;28;20092;-66
2022/03/11 07:12:19;;;;;;;20.48;9.82;;;1.50;99.90;;;;;;4989709;28;20184;-67
2022/03/11 07:14:48;;;;;;;18.42;9.82;;;1.60;99.90;;;;;;4991423;28;20053;-68
2022/03/11 07:17:15;;;;;;;20.70;11.00;;;1.60;99.90;;;;;;4995178;28;20502;-65
2022/03/11 07:19:42;;;;;;;23.10;9.55;;;1.70;99.90;;;;;;4992053;28;20056;-74
2022/03/11 07:22:09;;;;;;;19.08;8.32;;;1.80;99.90;;;;;;4994604;28;20089;-71
2022/03/11 07:24:36;;;;;;;23.65;9.25;;;1.80;99.90;;;;;;4993479;28;20133;-69
2022/03/11 07:27:03;;;;;;;14.25;7.10;;;1.90;99.90;;;;;;4998193;28;20426;-69
2022/03/11 07:29:30;;;;;;;16.52;8.60;;;2.00;99.90;;;;;;4998494;28;20145;-67
2022/03/11 07:31:57;;;;;;;13.73;7.75;;;2.10;99.90;;;;;;4994675;28;20046;-68
2022/03/11 07:34:26;;;;;;;16.15;7.45;;;2.10;99.90;;;;;;4988862;28;20112;-74
2022/03/11 07:36:53;;;;;;;16.77;9.38;;;2.10;99.90;;;;;;4993345;28;20058;-64
2022/03/11 07:39:20;;;;;;;15.30;7.05;;;2.20;99.90;;;;;;4993977;28;20153;-64
2022/03/11 07:41:49;;;;;;;15.48;7.18;;;2.30;99.90;;;;;;4994664;28;20049;-70
2022/03/11 07:44:16;;;;;;;17.13;6.70;;;2.30;99.90;;;;;;5000341;28;20151;-70
2022/03/11 07:46:51;;;;;;;13.23;6.15;;;2.40;99.90;;;;;;4991501;28;20050;-66
2022/03/11 07:49:19;;;;;;;17.17;6.40;;;2.40;99.90;;;;;;4993600;28;20167;-64
2022/03/11 07:51:45;;;;;;;17.45;6.60;;;2.50;99.90;;;;;;4993481;28;20129;-66
2022/03/11 07:54:12;;;;;;;15.13;7.13;;;2.50;99.90;;;;;;4995470;28;20543;-69
2022/03/11 07:56:40;;;;;;;12.65;7.03;;;2.60;99.90;;;;;;4996735;28;20046;-71
2022/03/11 07:59:07;;;;;;;13.68;6.43;;;2.60;99.90;;;;;;4996826;28;20129;-68
2022/03/11 08:01:34;;;;;;;12.80;6.32;;;2.70;99.90;;;;;;5000399;28;20148;-69
2022/03/11 08:04:02;;;;;;;11.25;6.55;;;2.70;99.90;;;;;;4997658;28;20295;-69
2022/03/11 08:06:30;;;;;;;23.25;7.18;;;2.80;99.90;;;;;;4995771;28;20124;-65
2022/03/11 08:08:58;;;;;;;18.38;6.88;;;2.80;99.90;;;;;;4992035;28;20089;-68
2022/03/11 08:11:26;;;;;;;13.02;6.22;;;2.90;99.90;;;;;;4999199;28;20096;-66
2022/03/11 08:13:53;;;;;;;14.95;7.00;;;2.90;99.90;;;;;;5000073;28;20037;-64
2022/03/11 08:16:20;;;;;;;16.60;8.00;;;3.00;99.90;;;;;;4994441;28;20058;-70
2022/03/11 08:18:47;;;;;;;24.23;6.78;;;3.00;99.90;;;;;;4997124;28;20117;-66
2022/03/11 08:21:16;;;;;;;15.65;8.15;;;2.90;99.90;;;;;;4994945;28;20057;-67
2022/03/11 08:23:44;;;;;;;14.43;7.38;;;3.00;99.90;;;;;;4993752;28;20046;-75
2022/03/11 08:26:11;;;;;;;20.98;6.43;;;3.00;99.90;;;;;;4997319;28;20635;-64
2022/03/11 08:28:44;;;;;;;12.45;6.63;;;3.00;99.90;;;;;;4992385;28;20351;-66
2022/03/11 08:31:32;;;;;;;12.02;8.88;;;3.00;99.90;;;;;;4992036;28;20069;-64
2022/03/11 08:33:59;;;;;;;15.23;6.80;;;3.10;99.90;;;;;;4993113;28;20077;-63
2022/03/11 08:36:26;;;;;;;20.20;7.05;;;3.10;99.90;;;;;;4998273;28;20614;-73
2022/03/11 08:38:54;;;;;;;15.90;7.20;;;3.20;99.90;;;;;;4988865;28;20260;-64
2022/03/11 08:41:25;;;;;;;11.18;5.65;;;3.20;99.90;;;;;;4996023;28;20152;-65
2022/03/11 08:43:52;;;;;;;14.90;7.43;;;3.30;99.90;;;;;;4996178;28;20062;-66
2022/03/11 08:46:19;;;;;;;13.23;7.72;;;3.40;99.90;;;;;;4994173;28;20085;-68
2022/03/11 08:48:46;;;;;;;13.07;7.40;;;3.40;99.90;;;;;;4990465;28;20157;-64
2022/03/11 08:51:13;;;;;;;10.23;7.65;;;3.40;99.90;;;;;;4995988;28;20860;-63
2022/03/11 08:53:40;;;;;;;15.85;7.85;;;3.50;99.90;;;;;;4995762;28;20125;-64
2022/03/11 08:56:07;;;;;;;14.52;8.02;;;3.40;99.90;;;;;;4994854;28;20049;-64
2022/03/11 08:58:34;;;;;;;19.25;7.53;;;3.30;99.90;;;;;;4995877;28;20767;-67
2022/03/11 09:01:01;;;;;;;13.05;6.35;;;3.40;99.90;;;;;;4988045;28;20161;-64
2022/03/11 09:03:29;;;;;;;15.77;6.20;;;3.40;99.90;;;;;;4991580;28;20081;-72
2022/03/11 09:05:58;;;;;;;20.52;7.10;;;3.50;99.90;;;;;;4996758;28;20097;-66
2022/03/11 09:08:25;;;;;;;13.25;6.30;;;3.60;99.90;;;;;;4992761;28;20046;-63
2022/03/11 09:10:52;;;;;;;15.13;7.78;;;3.70;99.90;;;;;;4991918;28;20814;-67
2022/03/11 09:13:19;;;;;;;12.85;6.60;;;3.80;99.90;;;;;;4992444;28;20058;-62
2022/03/11 09:15:46;;;;;;;13.00;7.38;;;3.90;99.90;;;;;;5000570;28;20160;-63
2022/03/11 09:18:14;;;;;;;21.05;5.68;;;4.00;99.90;;;;;;4996112;28;20124;-62
2022/03/11 09:20:41;;;;;;;19.95;8.15;;;4.00;99.90;;;;;;4993991;28;20050;-65
2022/03/11 09:23:10;;;;;;;17.27;6.90;;;4.00;99.90;;;;;;4989736;28;20120;-66
2022/03/11 09:25:38;;;;;;;16.88;6.72;;;4.10;99.90;;;;;;4990882;28;20053;-71
2022/03/11 09:28:06;;;;;;;13.25;6.95;;;4.10;99.90;;;;;;4987203;28;20133;-66
2022/03/11 09:30:34;;;;;;;17.25;6.35;;;4.10;99.90;;;;;;4993810;28;20046;-68
2022/03/11 09:33:01;;;;;;;21.20;7.60;;;4.10;99.90;;;;;;4991830;28;20117;-62
2022/03/11 09:35:28;;;;;;;15.35;7.43;;;4.20;99.90;;;;;;4992901;28;20078;-65
2022/03/11 09:37:55;;;;;;;28.27;14.63;;;4.20;99.90;;;;;;4993866;28;20113;-64
2022/03/11 09:40:22;;;;;;;18.60;9.48;;;4.20;99.90;;;;;;5000877;28;20058;-66
2022/03/11 09:42:50;;;;;;;16.63;8.68;;;4.20;99.90;;;;;;4993603;28;20054;-63
2022/03/11 09:45:19;;;;;;;14.77;8.00;;;4.30;99.90;;;;;;4996810;28;20046;-70
2022/03/11 09:47:47;;;;;;;11.63;6.50;;;4.40;99.90;;;;;;4997812;28;20045;-66
2022/03/11 09:50:15;;;;;;;36.40;17.33;;;4.50;99.90;;;;;;5002190;28;20165;-69
2022/03/11 09:52:42;;;;;;;49.75;26.77;;;4.50;99.90;;;;;;4993949;28;20081;-64
2022/03/11 09:55:09;;;;;;;55.00;29.00;;;4.50;99.90;;;;;;4998745;28;20050;-71
2022/03/11 09:57:36;;;;;;;92.43;39.45;;;4.50;99.90;;;;;;4989799;28;20053;-70
2022/03/11 10:00:05;;;;;;;35.90;16.48;;;4.50;99.90;;;;;;4997861;28;20065;-66
2022/03/11 10:02:41;;;;;;;24.45;9.90;;;4.60;99.90;;;;;;4998308;28;20058;-69
2022/03/11 10:05:12;;;;;;;27.45;13.73;;;4.60;99.90;;;;;;4999239;28;20137;-67
2022/03/11 10:08:04;;;;;;;19.95;8.77;;;4.50;99.90;;;;;;5000660;28;20225;-72
2022/03/11 10:10:32;;;;;;;33.05;17.55;;;4.50;99.90;;;;;;5000998;28;20064;-69
2022/03/11 10:13:08;;;;;;;36.92;15.05;;;4.50;99.90;;;;;;4998958;28;20070;-68
2022/03/11 10:15:37;;;;;;;14.77;7.90;;;4.40;99.90;;;;;;5001114;28;20058;-63
2022/03/11 10:18:09;;;;;;;22.88;12.40;;;4.50;99.90;;;;;;5003380;28;20395;-65
2022/03/11 10:20:36;;;;;;;12.20;7.43;;;4.50;99.90;;;;;;4990432;28;20077;-64
2022/03/11 10:23:11;;;;;;;21.58;11.45;;;4.60;99.90;;;;;;5002965;28;20046;-63
2022/03/11 10:25:38;;;;;;;12.25;7.15;;;4.70;99.90;;;;;;5002061;28;20212;-70
2022/03/11 10:28:12;;;;;;;14.00;8.65;;;4.80;99.90;;;;;;5001411;28;20133;-62
2022/03/11 10:30:44;;;;;;;19.15;7.07;;;4.80;99.90;;;;;;4997095;28;20046;-63
2022/03/11 10:33:15;;;;;;;11.30;7.75;;;4.80;99.90;;;;;;4998037;28;20161;-64
2022/03/11 10:35:47;;;;;;;15.68;7.22;;;4.90;99.90;;;;;;4992929;28;20058;-64
2022/03/11 10:38:16;;;;;;;20.48;8.75;;;5.00;99.90;;;;;;4998989;28;20137;-64
2022/03/11 10:40:54;;;;;;;25.13;6.72;;;4.90;99.90;;;;;;4999398;28;20141;-64
2022/03/11 10:43:27;;;;;;;13.63;6.88;;;4.90;99.90;;;;;;4999104;28;20116;-63
2022/03/11 10:45:56;;;;;;;15.43;7.32;;;4.80;99.90;;;;;;5000035;28;20115;-65
2022/03/11 10:48:54;;;;;;;13.02;6.13;;;4.90;99.90;;;;;;4988674;28;20053;-65
2022/03/11 10:51:26;;;;;;;16.70;9.38;;;4.90;99.90;;;;;;4998812;28;20112;-66
2022/03/11 10:53:57;;;;;;;10.77;7.40;;;4.90;99.90;;;;;;5000668;28;20129;-67
2022/03/11 10:56:33;;;;;;;9.80;6.40;;;5.00;99.90;;;;;;4997984;28;20054;-64
2022/03/11 10:59:13;;;;;;;13.80;7.25;;;5.00;99.90;;;;;;4998227;28;20064;-63
2022/03/11 11:01:43;;;;;;;12.15;5.93;;;5.10;99.90;;;;;;4992730;28;20042;-64
2022/03/11 11:04:12;;;;;;;;;;;5.10;99.90;;;;;;5002338;28;20376;-65
2022/03/11 11:06:39;;;;;;;14.55;7.55;;;5.10;99.90;;;;;;5001500;28;19964;-64
2022/03/11 11:09:08;;;;;;;10.45;6.53;;;5.10;99.90;;;;;;5001163;28;20144;-68
2022/03/11 11:11:35;;;;;;;9.30;6.78;;;5.10;99.90;;;;;;5002551;28;20081;-64
2022/03/11 11:14:07;;;;;;;13.55;6.85;;;5.00;99.90;;;;;;4999294;28;20599;-67
2022/03/11 11:16:40;;;;;;;13.48;6.35;;;5.00;99.90;;;;;;4990489;28;20112;-64
2022/03/11 11:19:17;;;;;;;14.25;6.82;;;5.10;99.90;;;;;;4988978;28;21019;-64
2022/03/11 11:21:51;;;;;;;12.77;7.43;;;5.10;99.90;;;;;;4995332;28;20139;-63
2022/03/11 11:24:24;;;;;;;14.40;8.20;;;5.00;99.90;;;;;;4991925;28;20054;-67
2022/03/11 11:26:53;;;;;;;11.32;6.45;;;4.90;99.90;;;;;;4988085;28;20411;-63
2022/03/11 11:29:24;;;;;;;12.07;6.30;;;4.80;99.90;;;;;;4993144;28;20101;-66
2022/03/11 11:31:51;;;;;;;10.25;6.90;;;4.70;99.90;;;;;;4990838;28;20492;-68
2022/03/11 11:34:30;;;;;;;15.07;7.22;;;4.60;99.90;;;;;;4990069;28;20058;-69
2022/03/11 11:36:58;;;;;;;10.60;6.82;;;4.70;99.90;;;;;;4991849;28;20069;-64
2022/03/11 11:39:27;;;;;;;10.68;6.18;;;4.70;99.90;;;;;;4982490;28;20109;-64
2022/03/11 11:41:57;;;;;;;14.80;7.45;;;4.60;99.90;;;;;;4984390;28;20050;-68
2022/03/11 11:44:32;;;;;;;;;;;4.70;99.90;;;;;;4996559;28;20058;-64
2022/03/11 11:47:15;;;;;;;21.85;6.80;;;4.70;99.90;;;;;;5000326;28;19929;-64
2022/03/11 11:49:54;;;;;;;9.32;5.82;;;4.80;99.90;;;;;;4997366;28;20236;-66
2022/03/11 11:52:27;;;;;;;11.32;6.15;;;4.90;99.90;;;;;;5006272;28;20062;-64
2022/03/11 11:55:20;;;;;;;15.50;7.15;;;5.00;99.90;;;;;;4994959;28;20048;-65
2022/03/11 11:57:48;;;;;;;10.40;6.57;;;5.10;99.90;;;;;;5000185;28;20081;-66
2022/03/11 12:00:37;;;;;;;10.27;5.97;;;5.00;99.90;;;;;;4998364;28;20407;-65
2022/03/11 12:03:13;;;;;;;10.38;6.22;;;5.00;99.90;;;;;;4997474;28;20046;-63
2022/03/11 12:05:50;;;;;;;15.52;7.03;;;5.10;99.90;;;;;;4995984;28;20443;-67
2022/03/11 12:08:32;;;;;;;15.43;8.13;;;5.20;99.90;;;;;;4994126;28;20038;-65
2022/03/11 12:10:59;;;;;;;13.95;7.05;;;5.20;99.90;;;;;;4999079;28;20092;-65
2022/03/11 12:13:37;;;;;;;12.77;8.60;;;5.30;99.90;;;;;;4996429;28;20535;-64
2022/03/11 12:16:24;;;;;;;15.07;7.93;;;5.20;99.90;;;;;;5001023;28;20038;-67
2022/03/11 12:18:51;;;;;;;15.50;9.40;;;5.20;99.90;;;;;;4998790;28;20060;-64
2022/03/11 12:21:40;;;;;;;17.77;9.70;;;5.30;99.90;;;;;;4999437;28;20053;-70
2022/03/11 12:24:33;;;;;;;21.08;10.00;;;5.20;99.90;;;;;;5000568;28;20124;-68
2022/03/11 12:27:01;;;;;;;16.02;9.13;;;5.40;99.90;;;;;;4999132;28;20053;-64
2022/03/11 12:29:36;;;;;;;18.70;10.02;;;5.40;99.90;;;;;;5004921;28;20038;-69
2022/03/11 12:32:07;;;;;;;14.60;10.45;;;5.30;99.90;;;;;;5002147;28;20637;-64
2022/03/11 12:34:34;;;;;;;16.77;8.90;;;5.30;99.90;;;;;;5006667;28;20133;-64
2022/03/11 12:37:01;;;;;;;15.65;8.02;;;5.20;99.90;;;;;;5002821;28;20169;-65
2022/03/11 12:39:29;;;;;;;16.98;8.02;;;5.10;99.90;;;;;;4999922;28;20124;-72
2022/03/11 12:41:56;;;;;;;18.02;7.32;;;5.10;99.90;;;;;;5005183;28;20050;-67
2022/03/11 12:44:23;;;;;;;14.75;7.32;;;5.10;99.90;;;;;;5004964;28;20050;-65
2022/03/11 12:46:50;;;;;;;11.23;6.95;;;5.10;99.90;;;;;;5003976;28;20168;-63
2022/03/11 12:49:27;;;;;;;19.58;7.78;;;5.10;99.90;;;;;;4997110;28;20508;-70
2022/03/11 12:52:19;;;;;;;15.55;8.45;;;5.20;99.90;;;;;;4991609;28;20053;-67